createdAt,value
2019-01-17T00:00:30.743Z,74.15
2019-01-17T00:01:30.714Z,74.15
2019-01-17T00:02:30.709Z,73.84
2019-01-17T00:03:30.724Z,73.84
2019-01-17T00:04:30.683Z,73.84
2019-01-17T00:05:30.697Z,74.05
2019-01-17T00:06:30.670Z,74.15
2019-01-17T00:07:30.653Z,74.46
2019-01-17T00:08:30.668Z,74.46
2019-01-17T00:09:30.625Z,74.91
2019-01-17T00:10:30.627Z,74.08
2019-01-17T00:11:30.603Z,73.84
2019-01-17T00:12:30.591Z,74.67
2019-01-17T00:13:30.607Z,74.46
2019-01-17T00:14:30.607Z,74.50
2019-01-17T00:15:30.557Z,74.05
2019-01-17T00:16:30.550Z,74.77
2019-01-17T00:17:30.537Z,74.91
2019-01-17T00:18:30.521Z,74.71
2019-01-17T00:19:30.535Z,74.46
2019-01-17T00:20:30.520Z,74.98
2019-01-17T00:21:30.489Z,74.50
2019-01-17T00:22:30.501Z,74.71
2019-01-17T00:23:30.475Z,75.22
2019-01-17T00:24:30.489Z,74.46
2019-01-17T00:25:30.462Z,74.60
2019-01-17T00:26:30.457Z,74.71
2019-01-17T00:27:30.428Z,74.50
2019-01-17T00:28:30.413Z,74.29
2019-01-17T00:29:30.434Z,74.71
2019-01-17T00:30:30.403Z,74.50
2019-01-17T00:31:30.375Z,75.22
2019-01-17T00:32:30.365Z,74.50
2019-01-17T00:33:30.390Z,74.71
2019-01-17T00:34:30.359Z,74.19
2019-01-17T00:35:30.354Z,74.50
2019-01-17T00:36:30.323Z,74.50
2019-01-17T00:37:30.305Z,74.81
2019-01-17T00:38:30.295Z,75.05
2019-01-17T00:39:30.313Z,74.81
2019-01-17T00:40:30.282Z,75.26
2019-01-17T00:41:30.261Z,74.84
2019-01-17T00:42:30.257Z,75.05
2019-01-17T00:43:30.243Z,75.36
2019-01-17T00:44:30.237Z,75.67
2019-01-17T00:45:30.251Z,75.02
2019-01-17T00:46:30.214Z,74.71
2019-01-17T00:47:30.193Z,75.46
2019-01-17T00:48:30.191Z,75.53
2019-01-17T00:49:30.171Z,75.53
2019-01-17T00:50:30.183Z,75.32
2019-01-17T00:51:30.152Z,75.43
2019-01-17T00:52:30.139Z,75.02
2019-01-17T00:53:30.125Z,75.36
2019-01-17T00:54:30.120Z,75.05
2019-01-17T00:55:30.124Z,75.05
2019-01-17T00:56:30.097Z,75.12
2019-01-17T00:57:30.090Z,74.91
2019-01-17T00:58:30.100Z,74.84
2019-01-17T00:59:30.062Z,75.02
2019-01-17T01:00:30.075Z,75.36
2019-01-17T01:01:30.041Z,74.81
2019-01-17T01:02:30.031Z,75.67
2019-01-17T01:03:30.056Z,75.02
2019-01-17T01:04:30.004Z,74.74
2019-01-17T01:05:30.012Z,75.32
2019-01-17T01:06:30.014Z,75.57
2019-01-17T01:07:30.032Z,75.57
2019-01-17T01:08:30.053Z,75.05
2019-01-17T01:09:29.945Z,75.05
2019-01-17T01:10:29.954Z,75.57
2019-01-17T01:11:29.921Z,75.26
2019-01-17T01:12:29.911Z,75.36
2019-01-17T01:13:29.900Z,75.15
2019-01-17T01:14:29.886Z,75.78
2019-01-17T01:15:29.900Z,75.67
2019-01-17T01:16:29.875Z,75.05
2019-01-17T01:17:29.852Z,75.57
2019-01-17T01:18:29.845Z,75.78
2019-01-17T01:19:29.831Z,75.67
2019-01-17T01:20:29.841Z,75.05
2019-01-17T01:21:29.810Z,75.26
2019-01-17T01:22:29.798Z,75.15
2019-01-17T01:23:29.788Z,74.74
2019-01-17T01:24:29.776Z,75.36
2019-01-17T01:25:29.788Z,74.74
2019-01-17T01:26:29.756Z,75.36
2019-01-17T01:27:29.745Z,75.32
2019-01-17T01:28:29.730Z,75.57
2019-01-17T01:29:29.716Z,74.81
2019-01-17T01:30:29.734Z,74.81
2019-01-17T01:31:29.697Z,75.02
2019-01-17T01:32:29.683Z,74.91
2019-01-17T01:33:29.674Z,74.91
2019-01-17T01:34:29.704Z,74.71
2019-01-17T01:35:29.649Z,74.84
2019-01-17T01:36:29.657Z,75.02
2019-01-17T01:37:29.628Z,74.91
2019-01-17T01:38:29.628Z,75.05
2019-01-17T01:39:29.606Z,75.02
2019-01-17T01:40:29.597Z,75.46
2019-01-17T01:41:29.612Z,75.36
2019-01-17T01:42:29.572Z,74.60
2019-01-17T01:43:29.566Z,74.91
2019-01-17T01:44:29.548Z,74.91
2019-01-17T01:45:29.536Z,74.08
2019-01-17T01:46:29.546Z,75.02
2019-01-17T01:47:29.514Z,74.91
2019-01-17T01:48:29.498Z,75.22
2019-01-17T01:49:29.497Z,75.05
2019-01-17T01:50:29.480Z,75.02
2019-01-17T01:51:29.490Z,74.74
2019-01-17T01:52:29.454Z,75.02
2019-01-17T01:53:29.444Z,74.84
2019-01-17T01:54:29.446Z,75.22
2019-01-17T01:55:29.421Z,74.32
2019-01-17T01:56:29.428Z,74.32
2019-01-17T01:57:29.401Z,75.26
2019-01-17T01:58:29.388Z,74.84
2019-01-17T01:59:29.398Z,75.36
2019-01-17T02:00:29.368Z,74.84
2019-01-17T02:01:29.378Z,74.53
2019-01-17T02:02:29.342Z,74.95
2019-01-17T02:03:29.334Z,75.36
2019-01-17T02:04:29.319Z,75.46
2019-01-17T02:05:29.365Z,75.15
2019-01-17T02:06:29.315Z,75.57
2019-01-17T02:07:29.286Z,74.84
2019-01-17T02:08:29.269Z,75.26
2019-01-17T02:09:29.263Z,74.84
2019-01-17T02:10:29.259Z,75.02
2019-01-17T02:11:29.262Z,74.19
2019-01-17T02:12:29.238Z,74.91
2019-01-17T02:13:29.217Z,74.91
2019-01-17T02:14:29.206Z,74.95
2019-01-17T02:15:29.199Z,75.22
2019-01-17T02:16:29.227Z,75.02
2019-01-17T02:17:29.171Z,75.12
2019-01-17T02:18:29.169Z,74.22
2019-01-17T02:19:29.146Z,74.43
2019-01-17T02:20:29.140Z,75.15
2019-01-17T02:21:29.143Z,74.91
2019-01-17T02:22:29.116Z,74.29
2019-01-17T02:23:29.106Z,74.81
2019-01-17T02:24:29.098Z,74.32
2019-01-17T02:25:29.091Z,75.12
2019-01-17T02:26:29.115Z,74.81
2019-01-17T02:27:29.061Z,74.81
2019-01-17T02:28:29.055Z,74.71
2019-01-17T02:29:29.045Z,74.60
2019-01-17T02:30:29.037Z,74.91
2019-01-17T02:31:29.013Z,74.26
2019-01-17T02:32:29.022Z,74.19
2019-01-17T02:33:29.000Z,74.29
2019-01-17T02:34:28.977Z,74.50
2019-01-17T02:35:28.974Z,73.98
2019-01-17T02:36:28.958Z,73.88
2019-01-17T02:37:28.963Z,74.36
2019-01-17T02:38:28.946Z,74.29
2019-01-17T02:39:28.924Z,74.08
2019-01-17T02:40:28.911Z,73.67
2019-01-17T02:41:28.899Z,73.43
2019-01-17T02:42:28.909Z,73.67
2019-01-17T02:43:28.882Z,73.53
2019-01-17T02:44:28.886Z,73.22
2019-01-17T02:45:28.867Z,73.32
2019-01-17T02:46:28.885Z,73.32
2019-01-17T02:47:28.851Z,73.22
2019-01-17T02:48:28.823Z,74.77
2019-01-17T02:49:28.811Z,74.12
2019-01-17T02:50:28.805Z,74.32
2019-01-17T02:51:28.790Z,73.81
2019-01-17T02:52:28.811Z,75.09
2019-01-17T02:53:28.768Z,73.81
2019-01-17T02:54:35.580Z,74.12
2019-01-17T02:55:29.751Z,73.11
2019-01-17T02:56:28.733Z,73.08
2019-01-17T02:57:28.742Z,73.50
2019-01-17T02:58:28.709Z,73.50
2019-01-17T02:59:28.704Z,73.08
2019-01-17T03:00:28.699Z,73.39
2019-01-17T03:01:28.674Z,73.29
2019-01-17T03:02:28.697Z,72.77
2019-01-17T03:03:28.658Z,72.77
2019-01-17T03:04:28.645Z,73.05
2019-01-17T03:05:28.628Z,73.15
2019-01-17T03:06:28.617Z,72.53
2019-01-17T03:07:28.610Z,73.36
2019-01-17T03:08:28.617Z,72.74
2019-01-17T03:09:28.583Z,72.43
2019-01-17T03:10:28.575Z,72.43
2019-01-17T03:11:28.563Z,72.64
2019-01-17T03:12:28.553Z,71.91
2019-01-17T03:13:28.592Z,71.91
2019-01-17T03:14:28.529Z,72.50
2019-01-17T03:15:28.525Z,72.33
2019-01-17T03:16:28.507Z,71.81
2019-01-17T03:17:28.495Z,71.70
2019-01-17T03:18:28.503Z,71.39
2019-01-17T03:19:28.489Z,72.53
2019-01-17T03:20:28.467Z,71.81
2019-01-17T03:21:28.452Z,71.91
2019-01-17T03:22:28.441Z,71.26
2019-01-17T03:23:28.453Z,71.50
2019-01-17T03:24:28.433Z,71.26
2019-01-17T03:25:28.421Z,71.15
2019-01-17T03:26:28.395Z,71.39
2019-01-17T03:27:28.401Z,71.36
2019-01-17T03:28:28.391Z,71.47
2019-01-17T03:29:28.366Z,71.57
2019-01-17T03:30:28.355Z,71.47
2019-01-17T03:31:28.342Z,71.36
2019-01-17T03:32:28.343Z,70.84
2019-01-17T03:33:28.338Z,71.26
2019-01-17T03:34:28.308Z,70.92
2019-01-17T03:35:28.295Z,70.74
2019-01-17T03:36:28.285Z,70.22
2019-01-17T03:37:28.272Z,70.01
2019-01-17T03:38:28.297Z,70.64
2019-01-17T03:39:28.249Z,70.84
2019-01-17T03:40:28.240Z,70.84
2019-01-17T03:41:28.227Z,70.71
2019-01-17T03:42:28.218Z,70.19
2019-01-17T03:43:28.217Z,70.71
2019-01-17T03:44:28.210Z,70.50
2019-01-17T03:45:28.191Z,69.98
2019-01-17T03:46:28.175Z,70.09
2019-01-17T03:47:28.167Z,70.61
2019-01-17T03:48:28.154Z,69.71
2019-01-17T03:49:28.167Z,69.98
2019-01-17T03:50:28.148Z,71.02
2019-01-17T03:51:28.117Z,70.50
2019-01-17T03:52:28.117Z,70.19
2019-01-17T03:53:28.096Z,70.50
2019-01-17T03:54:28.101Z,70.09
2019-01-17T03:55:28.078Z,70.61
2019-01-17T03:56:28.079Z,69.47
2019-01-17T03:57:28.052Z,69.67
2019-01-17T03:58:28.038Z,70.29
2019-01-17T03:59:28.053Z,70.29
2019-01-17T04:00:28.018Z,69.98
2019-01-17T04:01:28.006Z,70.92
2019-01-17T04:02:28.003Z,70.71
2019-01-17T04:03:27.987Z,70.81
2019-01-17T04:04:28.003Z,70.71
2019-01-17T04:05:27.965Z,71.22
2019-01-17T04:06:27.948Z,70.50
2019-01-17T04:07:27.941Z,70.81
2019-01-17T04:08:27.928Z,70.61
2019-01-17T04:09:27.939Z,70.71
2019-01-17T04:10:27.904Z,69.85
2019-01-17T04:11:27.896Z,70.57
2019-01-17T04:12:27.904Z,70.26
2019-01-17T04:13:27.876Z,70.06
2019-01-17T04:14:27.885Z,71.30
2019-01-17T04:15:27.852Z,70.67
2019-01-17T04:16:27.840Z,70.78
2019-01-17T04:17:27.825Z,70.47
2019-01-17T04:18:27.820Z,70.06
2019-01-17T04:19:27.822Z,70.67
2019-01-17T04:20:27.800Z,70.37
2019-01-17T04:21:27.783Z,69.95
2019-01-17T04:22:27.778Z,69.64
2019-01-17T04:23:27.763Z,70.06
2019-01-17T04:24:27.771Z,69.74
2019-01-17T04:25:27.736Z,69.64
2019-01-17T04:26:27.728Z,69.85
2019-01-17T04:27:27.717Z,70.26
2019-01-17T04:28:27.709Z,70.57
2019-01-17T04:29:27.720Z,70.78
2019-01-17T04:30:27.728Z,70.78
2019-01-17T04:31:27.824Z,70.57
2019-01-17T04:32:27.660Z,70.67
2019-01-17T04:33:27.659Z,70.12
2019-01-17T04:34:27.659Z,70.78
2019-01-17T04:35:27.640Z,70.95
2019-01-17T04:36:27.616Z,70.85
2019-01-17T04:37:27.610Z,70.47
2019-01-17T04:38:27.596Z,70.67
2019-01-17T04:39:27.610Z,70.23
2019-01-17T04:40:27.572Z,69.82
2019-01-17T04:41:27.573Z,70.67
2019-01-17T04:42:27.554Z,70.54
2019-01-17T04:43:27.546Z,71.16
2019-01-17T04:44:27.526Z,70.57
2019-01-17T04:45:27.541Z,70.95
2019-01-17T04:46:27.507Z,70.47
2019-01-17T04:47:27.496Z,70.78
2019-01-17T04:48:27.483Z,70.47
2019-01-17T04:49:27.472Z,70.67
2019-01-17T04:50:27.478Z,70.98
2019-01-17T04:51:27.449Z,70.95
2019-01-17T04:52:27.446Z,71.30
2019-01-17T04:53:27.432Z,70.33
2019-01-17T04:54:27.421Z,70.95
2019-01-17T04:55:27.423Z,70.54
2019-01-17T04:56:27.395Z,70.78
2019-01-17T04:57:27.388Z,70.75
2019-01-17T04:58:27.386Z,70.95
2019-01-17T04:59:27.358Z,70.95
2019-01-17T05:00:27.368Z,70.75
2019-01-17T05:01:27.350Z,70.54
2019-01-17T05:02:27.330Z,70.54
2019-01-17T05:03:27.320Z,70.75
2019-01-17T05:04:27.303Z,70.95
2019-01-17T05:05:27.310Z,70.95
2019-01-17T05:06:27.285Z,71.16
2019-01-17T05:07:27.284Z,70.95
2019-01-17T05:08:27.267Z,70.75
2019-01-17T05:09:27.253Z,70.75
2019-01-17T05:10:27.267Z,70.85
2019-01-17T05:11:27.227Z,70.75
2019-01-17T05:12:27.217Z,70.95
2019-01-17T05:13:27.267Z,71.26
2019-01-17T05:14:27.198Z,71.37
2019-01-17T05:15:27.194Z,71.37
2019-01-17T05:16:27.185Z,70.85
2019-01-17T05:17:27.165Z,71.16
2019-01-17T05:18:27.155Z,71.57
2019-01-17T05:19:27.139Z,71.37
2019-01-17T05:20:27.131Z,71.16
2019-01-17T05:21:27.145Z,71.16
2019-01-17T05:22:27.110Z,70.95
2019-01-17T05:23:27.090Z,70.85
2019-01-17T05:24:27.086Z,71.06
2019-01-17T05:25:27.072Z,71.26
2019-01-17T05:26:27.085Z,70.95
2019-01-17T05:27:27.049Z,71.16
2019-01-17T05:28:27.041Z,70.95
2019-01-17T05:29:27.036Z,70.95
2019-01-17T05:30:27.015Z,70.75
2019-01-17T05:31:27.023Z,70.92
2019-01-17T05:32:27.049Z,71.12
2019-01-17T05:33:26.989Z,70.92
2019-01-17T05:34:26.971Z,71.12
2019-01-17T05:35:26.960Z,70.75
2019-01-17T05:36:26.969Z,71.23
2019-01-17T05:37:26.937Z,70.82
2019-01-17T05:38:26.926Z,70.72
2019-01-17T05:39:26.917Z,70.92
2019-01-17T05:40:26.927Z,70.30
2019-01-17T05:41:26.915Z,70.61
2019-01-17T05:42:26.879Z,70.92
2019-01-17T05:43:26.878Z,71.23
2019-01-17T05:44:26.861Z,71.54
2019-01-17T05:45:26.870Z,70.92
2019-01-17T05:46:26.859Z,70.61
2019-01-17T05:47:26.825Z,71.09
2019-01-17T05:48:26.832Z,70.82
2019-01-17T05:49:26.807Z,70.61
2019-01-17T05:50:26.794Z,70.40
2019-01-17T05:51:26.799Z,70.72
2019-01-17T05:52:26.771Z,70.92
2019-01-17T05:53:26.760Z,70.92
2019-01-17T05:54:26.743Z,70.82
2019-01-17T05:55:26.742Z,70.92
2019-01-17T05:56:26.765Z,70.57
2019-01-17T05:57:26.713Z,70.92
2019-01-17T05:58:26.716Z,71.09
2019-01-17T05:59:26.692Z,70.68
2019-01-17T06:00:26.680Z,70.51
2019-01-17T06:01:26.667Z,70.37
2019-01-17T06:02:26.673Z,70.99
2019-01-17T06:03:26.648Z,70.99
2019-01-17T06:04:26.637Z,70.78
2019-01-17T06:05:26.629Z,70.99
2019-01-17T06:06:32.855Z,70.89
2019-01-17T06:07:27.619Z,70.78
2019-01-17T06:08:26.590Z,70.99
2019-01-17T06:09:26.580Z,71.09
2019-01-17T06:10:26.569Z,71.09
2019-01-17T06:11:26.557Z,70.78
2019-01-17T06:12:26.558Z,71.20
2019-01-17T06:13:26.533Z,71.41
2019-01-17T06:14:26.535Z,71.30
2019-01-17T06:15:26.509Z,71.20
2019-01-17T06:16:26.501Z,71.71
2019-01-17T06:17:26.499Z,71.71
2019-01-17T06:18:26.478Z,71.78
2019-01-17T06:19:26.474Z,71.61
2019-01-17T06:20:26.455Z,71.51
2019-01-17T06:21:26.446Z,72.02
2019-01-17T06:22:26.478Z,71.92
2019-01-17T06:23:26.442Z,71.30
2019-01-17T06:24:26.412Z,71.30
2019-01-17T06:25:28.114Z,71.71
2019-01-17T06:26:26.388Z,71.61
2019-01-17T06:27:26.408Z,71.92
2019-01-17T06:28:26.389Z,71.71
2019-01-17T06:29:26.358Z,71.71
2019-01-17T06:30:26.361Z,72.13
2019-01-17T06:31:26.340Z,71.61
2019-01-17T06:32:26.343Z,72.02
2019-01-17T06:33:26.311Z,72.44
2019-01-17T06:34:26.310Z,72.33
2019-01-17T06:35:26.311Z,72.13
2019-01-17T06:36:26.277Z,72.06
2019-01-17T06:37:26.295Z,72.33
2019-01-17T06:38:26.252Z,72.88
2019-01-17T06:39:26.248Z,72.33
2019-01-17T06:40:26.249Z,72.95
2019-01-17T06:41:26.222Z,72.95
2019-01-17T06:42:26.210Z,72.67
2019-01-17T06:43:26.218Z,72.88
2019-01-17T06:44:26.188Z,72.57
2019-01-17T06:45:26.180Z,72.64
2019-01-17T06:46:26.166Z,72.74
2019-01-17T06:47:26.146Z,72.64
2019-01-17T06:48:26.156Z,73.09
2019-01-17T06:49:26.131Z,72.99
2019-01-17T06:50:26.130Z,72.88
2019-01-17T06:51:26.125Z,73.19
2019-01-17T06:52:26.110Z,73.19
2019-01-17T06:53:26.103Z,74.91
2019-01-17T06:54:26.084Z,74.53
2019-01-17T06:55:26.068Z,76.46
2019-01-17T06:56:26.052Z,75.43
2019-01-17T06:57:26.042Z,74.50
2019-01-17T06:58:26.067Z,75.22
2019-01-17T06:59:26.026Z,74.60
2019-01-17T07:00:26.036Z,73.68
2019-01-17T07:01:26.004Z,72.95
2019-01-17T07:02:25.986Z,72.40
2019-01-17T07:03:25.991Z,72.33
2019-01-17T07:04:25.966Z,72.50
2019-01-17T07:05:25.954Z,72.23
2019-01-17T07:06:25.946Z,72.40
2019-01-17T07:07:25.937Z,72.64
2019-01-17T07:08:25.937Z,73.16
2019-01-17T07:09:25.909Z,73.05
2019-01-17T07:10:25.912Z,72.95
2019-01-17T07:11:25.892Z,73.05
2019-01-17T07:12:25.881Z,73.36
2019-01-17T07:13:25.888Z,72.85
2019-01-17T07:14:25.856Z,73.16
2019-01-17T07:15:25.841Z,72.85
2019-01-17T07:16:25.832Z,73.16
2019-01-17T07:17:25.818Z,73.05
2019-01-17T07:18:25.826Z,73.36
2019-01-17T07:19:25.796Z,73.36
2019-01-17T07:20:25.791Z,73.57
2019-01-17T07:21:25.794Z,74.19
2019-01-17T07:22:25.763Z,74.71
2019-01-17T07:23:25.775Z,76.04
2019-01-17T07:24:25.741Z,76.04
2019-01-17T07:25:25.729Z,75.84
2019-01-17T07:26:25.722Z,75.29
2019-01-17T07:27:25.723Z,74.67
2019-01-17T07:28:25.713Z,73.74
2019-01-17T07:29:25.716Z,73.54
2019-01-17T07:30:25.677Z,73.33
2019-01-17T07:31:25.659Z,73.77
2019-01-17T07:32:25.645Z,74.40
2019-01-17T07:33:25.662Z,74.91
2019-01-17T07:34:25.635Z,74.40
2019-01-17T07:35:25.617Z,74.40
2019-01-17T07:36:25.606Z,74.81
2019-01-17T07:37:25.594Z,73.77
2019-01-17T07:38:25.578Z,74.40
2019-01-17T07:39:25.609Z,74.57
2019-01-17T07:40:25.593Z,75.09
2019-01-17T07:41:25.546Z,75.18
2019-01-17T07:42:25.534Z,74.26
2019-01-17T07:43:25.527Z,74.46
2019-01-17T07:44:25.548Z,74.26
2019-01-17T07:45:25.497Z,74.57
2019-01-17T07:46:25.489Z,74.36
2019-01-17T07:47:25.504Z,73.33
2019-01-17T07:48:25.465Z,73.22
2019-01-17T07:49:25.469Z,73.22
2019-01-17T07:50:25.439Z,73.43
2019-01-17T07:51:25.431Z,73.43
2019-01-17T07:52:25.426Z,73.12
2019-01-17T07:53:25.412Z,73.33
2019-01-17T07:54:25.524Z,73.43
2019-01-17T07:55:25.385Z,73.12
2019-01-17T07:56:25.416Z,73.98
2019-01-17T07:57:25.370Z,74.05
2019-01-17T07:58:25.347Z,73.88
2019-01-17T07:59:25.382Z,73.77
2019-01-17T08:00:25.351Z,73.77
2019-01-17T08:01:25.328Z,74.19
2019-01-17T08:02:25.331Z,74.19
2019-01-17T08:03:25.300Z,74.81
2019-01-17T08:04:25.339Z,75.01
2019-01-17T08:05:25.291Z,74.40
2019-01-17T08:06:25.275Z,74.50
2019-01-17T08:07:25.243Z,75.01
2019-01-17T08:08:25.294Z,75.32
2019-01-17T08:09:25.254Z,74.71
2019-01-17T08:10:25.216Z,74.60
2019-01-17T08:11:25.204Z,74.81
2019-01-17T08:12:25.246Z,74.91
2019-01-17T08:13:25.177Z,74.71
2019-01-17T08:14:25.289Z,75.12
2019-01-17T08:15:25.182Z,75.01
2019-01-17T08:16:25.194Z,75.32
2019-01-17T08:17:25.139Z,75.01
2019-01-17T08:18:25.124Z,75.01
2019-01-17T08:19:25.099Z,74.71
2019-01-17T08:20:25.109Z,74.91
2019-01-17T08:21:26.048Z,74.71
2019-01-17T08:22:25.071Z,75.01
2019-01-17T08:23:25.061Z,74.40
2019-01-17T08:24:25.055Z,74.50
2019-01-17T08:25:25.083Z,74.91
2019-01-17T08:26:25.036Z,74.81
2019-01-17T08:27:25.015Z,74.77
2019-01-17T08:28:25.004Z,77.35
2019-01-17T08:29:24.999Z,74.60
2019-01-17T08:30:25.008Z,74.50
2019-01-17T08:31:24.967Z,74.50
2019-01-17T08:32:24.970Z,74.50
2019-01-17T08:33:24.958Z,75.12
2019-01-17T08:34:28.412Z,74.71
2019-01-17T08:35:24.947Z,74.50
2019-01-17T08:36:24.942Z,75.12
2019-01-17T08:37:24.900Z,74.71
2019-01-17T08:38:24.888Z,74.91
2019-01-17T08:39:24.878Z,75.32
2019-01-17T08:40:24.894Z,75.32
2019-01-17T08:41:24.862Z,74.67
2019-01-17T08:42:24.843Z,74.50
2019-01-17T08:43:24.828Z,74.60
2019-01-17T08:44:24.823Z,74.91
2019-01-17T08:45:24.833Z,74.91
2019-01-17T08:46:24.813Z,74.91
2019-01-17T08:47:24.806Z,75.01
2019-01-17T08:48:24.780Z,74.71
2019-01-17T08:49:24.766Z,74.71
2019-01-17T08:50:24.781Z,74.29
2019-01-17T08:51:24.739Z,74.60
2019-01-17T08:52:24.726Z,74.71
2019-01-17T08:53:24.723Z,74.60
2019-01-17T08:54:24.710Z,74.71
2019-01-17T08:55:24.708Z,73.77
2019-01-17T08:56:24.702Z,73.98
2019-01-17T08:57:24.698Z,74.81
2019-01-17T08:58:24.664Z,73.98
2019-01-17T08:59:24.663Z,74.50
2019-01-17T09:00:24.638Z,73.98
2019-01-17T09:01:24.668Z,74.19
2019-01-17T09:02:24.618Z,74.19
2019-01-17T09:03:24.602Z,74.60
2019-01-17T09:04:24.591Z,73.57
2019-01-17T09:05:24.584Z,74.19
2019-01-17T09:06:24.585Z,74.40
2019-01-17T09:07:24.554Z,74.40
2019-01-17T09:08:24.538Z,74.40
2019-01-17T09:09:24.532Z,74.50
2019-01-17T09:10:24.519Z,74.50
2019-01-17T09:11:24.527Z,74.60
2019-01-17T09:12:24.497Z,74.08
2019-01-17T09:13:24.493Z,73.68
2019-01-17T09:14:24.479Z,73.68
2019-01-17T09:15:24.458Z,73.98
2019-01-17T09:16:24.476Z,73.98
2019-01-17T09:17:24.441Z,74.29
2019-01-17T09:18:24.428Z,73.68
2019-01-17T09:19:24.442Z,73.77
2019-01-17T09:20:24.443Z,73.68
2019-01-17T09:21:24.417Z,74.08
2019-01-17T09:22:24.384Z,73.36
2019-01-17T09:23:24.382Z,72.85
2019-01-17T09:24:24.357Z,72.95
2019-01-17T09:25:24.352Z,72.71
2019-01-17T09:26:24.356Z,72.92
2019-01-17T09:27:24.324Z,72.92
2019-01-17T09:28:24.312Z,72.50
2019-01-17T09:29:24.312Z,71.06
2019-01-17T09:30:24.288Z,71.16
2019-01-17T09:31:24.319Z,71.06
2019-01-17T09:32:24.291Z,71.51
2019-01-17T09:33:24.258Z,71.58
2019-01-17T09:34:24.243Z,71.68
2019-01-17T09:35:24.233Z,71.58
2019-01-17T09:36:24.242Z,71.16
2019-01-17T09:37:24.211Z,70.96
2019-01-17T09:38:24.198Z,71.26
2019-01-17T09:39:24.186Z,72.50
2019-01-17T09:40:24.194Z,71.68
2019-01-17T09:41:24.192Z,71.47
2019-01-17T09:42:24.152Z,71.26
2019-01-17T09:43:24.147Z,71.06
2019-01-17T09:44:24.129Z,71.06
2019-01-17T09:45:24.121Z,71.16
2019-01-17T09:46:24.107Z,71.06
2019-01-17T09:47:24.117Z,71.26
2019-01-17T09:48:24.083Z,70.86
2019-01-17T09:49:24.077Z,71.06
2019-01-17T09:50:24.108Z,71.16
2019-01-17T09:51:24.059Z,71.06
2019-01-17T09:52:24.063Z,71.03
2019-01-17T09:53:24.035Z,71.06
2019-01-17T09:54:24.022Z,71.26
2019-01-17T09:55:24.006Z,70.65
2019-01-17T09:56:23.995Z,70.65
2019-01-17T09:57:23.993Z,70.96
2019-01-17T09:58:23.971Z,71.16
2019-01-17T09:59:23.962Z,71.16
2019-01-17T10:00:23.990Z,71.06
2019-01-17T10:01:23.951Z,70.86
2019-01-17T10:02:23.948Z,70.75
2019-01-17T10:03:23.923Z,70.75
2019-01-17T10:04:26.585Z,70.75
2019-01-17T10:05:23.893Z,70.86
2019-01-17T10:06:23.888Z,70.86
2019-01-17T10:07:23.887Z,70.96
2019-01-17T10:08:23.861Z,70.86
2019-01-17T10:09:23.851Z,70.86
2019-01-17T10:10:24.108Z,70.65
2019-01-17T10:11:23.841Z,70.54
2019-01-17T10:12:23.847Z,69.82
2019-01-17T10:13:23.803Z,69.59
2019-01-17T10:14:23.801Z,68.69
2019-01-17T10:15:23.779Z,67.63
2019-01-17T10:16:23.814Z,66.91
2019-01-17T10:17:23.822Z,66.83
2019-01-17T10:18:23.748Z,67.55
2019-01-17T10:19:23.745Z,67.45
2019-01-17T10:20:23.732Z,67.52
2019-01-17T10:21:23.840Z,67.35
2019-01-17T10:22:23.757Z,67.21
2019-01-17T10:23:23.693Z,66.18
2019-01-17T10:24:23.674Z,66.31
2019-01-17T10:25:23.669Z,66.28
2019-01-17T10:26:23.646Z,66.28
2019-01-17T10:27:23.682Z,66.42
2019-01-17T10:28:23.697Z,66.31
2019-01-17T10:29:23.622Z,66.18
2019-01-17T10:30:23.611Z,66.31
2019-01-17T10:31:23.598Z,66.39
2019-01-17T10:32:23.620Z,66.31
2019-01-17T10:33:23.577Z,66.39
2019-01-17T10:34:23.564Z,66.28
2019-01-17T10:35:23.552Z,65.88
2019-01-17T10:36:23.552Z,66.28
2019-01-17T10:37:23.560Z,66.08
2019-01-17T10:38:23.552Z,65.98
2019-01-17T10:39:23.530Z,65.98
2019-01-17T10:40:23.485Z,65.98
2019-01-17T10:41:23.510Z,65.91
2019-01-17T10:42:23.463Z,66.49
2019-01-17T10:43:23.477Z,66.28
2019-01-17T10:44:23.479Z,66.18
2019-01-17T10:45:23.438Z,65.77
2019-01-17T10:46:23.463Z,66.49
2019-01-17T10:47:23.432Z,66.60
2019-01-17T10:48:23.442Z,66.80
2019-01-17T10:49:23.391Z,66.91
2019-01-17T10:50:23.382Z,67.00
2019-01-17T10:51:23.372Z,67.00
2019-01-17T10:52:23.349Z,66.91
2019-01-17T10:53:23.366Z,67.11
2019-01-17T10:54:23.346Z,67.63
2019-01-17T10:55:23.318Z,67.42
2019-01-17T10:56:27.718Z,67.52
2019-01-17T10:57:23.305Z,67.93
2019-01-17T10:58:23.304Z,68.14
2019-01-17T10:59:23.310Z,67.93
2019-01-17T11:00:23.260Z,68.04
2019-01-17T11:01:23.249Z,67.83
2019-01-17T11:02:23.252Z,68.01
2019-01-17T11:03:23.258Z,67.83
2019-01-17T11:04:23.215Z,67.90
2019-01-17T11:05:23.204Z,67.70
2019-01-17T11:06:23.191Z,67.52
2019-01-17T11:07:23.231Z,68.04
2019-01-17T11:08:23.197Z,67.93
2019-01-17T11:09:23.167Z,67.42
2019-01-17T11:10:23.164Z,67.42
2019-01-17T11:11:23.140Z,67.63
2019-01-17T11:12:23.125Z,67.29
2019-01-17T11:13:23.126Z,67.39
2019-01-17T11:14:23.115Z,67.39
2019-01-17T11:15:23.082Z,67.60
2019-01-17T11:16:23.078Z,67.70
2019-01-17T11:17:23.078Z,67.90
2019-01-17T11:18:23.064Z,68.01
2019-01-17T11:19:23.067Z,68.01
2019-01-17T11:20:23.028Z,67.39
2019-01-17T11:21:23.020Z,67.39
2019-01-17T11:22:23.024Z,67.29
2019-01-17T11:23:22.992Z,67.39
2019-01-17T11:24:23.004Z,67.36
2019-01-17T11:25:22.980Z,67.15
2019-01-17T11:26:22.964Z,66.22
2019-01-17T11:27:23.738Z,66.43
2019-01-17T11:28:22.960Z,66.43
2019-01-17T11:29:22.962Z,66.53
2019-01-17T11:30:22.935Z,66.22
2019-01-17T11:31:22.905Z,66.12
2019-01-17T11:32:22.895Z,66.12
2019-01-17T11:33:22.915Z,65.81
2019-01-17T11:34:22.888Z,65.50
2019-01-17T11:35:22.880Z,65.61
2019-01-17T11:36:22.879Z,65.61
2019-01-17T11:37:22.838Z,65.81
2019-01-17T11:38:22.864Z,65.95
2019-01-17T11:39:22.820Z,66.12
2019-01-17T11:40:22.828Z,66.22
2019-01-17T11:41:22.812Z,66.12
2019-01-17T11:42:22.784Z,65.81
2019-01-17T11:43:22.802Z,65.92
2019-01-17T11:44:22.776Z,66.12
2019-01-17T11:45:22.772Z,65.89
2019-01-17T11:46:22.769Z,65.81
2019-01-17T11:47:22.756Z,65.92
2019-01-17T11:48:22.715Z,66.02
2019-01-17T11:49:22.704Z,65.99
2019-01-17T11:50:22.717Z,65.92
2019-01-17T11:51:22.698Z,65.81
2019-01-17T11:52:22.681Z,65.58
2019-01-17T11:53:22.661Z,65.50
2019-01-17T11:54:22.651Z,64.89
2019-01-17T11:55:22.652Z,64.99
2019-01-17T11:56:22.622Z,64.78
2019-01-17T11:57:22.613Z,65.71
2019-01-17T11:58:22.622Z,65.81
2019-01-17T11:59:22.593Z,65.40
2019-01-17T12:00:22.599Z,65.81
2019-01-17T12:01:22.578Z,65.50
2019-01-17T12:02:22.555Z,65.40
2019-01-17T12:03:22.541Z,65.71
2019-01-17T12:04:22.533Z,64.78
2019-01-17T12:05:22.538Z,64.47
2019-01-17T12:06:22.526Z,64.27
2019-01-17T12:07:22.496Z,64.99
2019-01-17T12:08:22.487Z,64.78
2019-01-17T12:09:22.496Z,64.92
2019-01-17T12:10:22.499Z,65.40
2019-01-17T12:11:22.450Z,65.74
2019-01-17T12:12:22.439Z,65.61
2019-01-17T12:13:22.487Z,65.71
2019-01-17T12:14:22.432Z,65.92
2019-01-17T12:15:22.403Z,65.92
2019-01-17T12:16:22.412Z,66.02
2019-01-17T12:17:22.381Z,66.12
2019-01-17T12:18:22.378Z,66.12
2019-01-17T12:19:22.369Z,66.02
2019-01-17T12:20:22.394Z,66.02
2019-01-17T12:21:22.370Z,65.71
2019-01-17T12:22:22.437Z,66.02
2019-01-17T12:23:22.313Z,65.81
2019-01-17T12:24:22.308Z,65.61
2019-01-17T12:25:22.316Z,65.61
2019-01-17T12:26:22.305Z,65.40
2019-01-17T12:27:22.268Z,65.50
2019-01-17T12:28:22.259Z,64.75
2019-01-17T12:29:22.249Z,64.17
2019-01-17T12:30:22.236Z,64.37
2019-01-17T12:31:22.347Z,64.68
2019-01-17T12:32:22.218Z,64.27
2019-01-17T12:33:22.215Z,64.47
2019-01-17T12:34:22.188Z,64.06
2019-01-17T12:35:22.180Z,63.65
2019-01-17T12:36:22.282Z,63.31
2019-01-17T12:37:22.196Z,63.42
2019-01-17T12:38:22.144Z,62.49
2019-01-17T12:39:22.136Z,63.00
2019-01-17T12:40:22.121Z,63.13
2019-01-17T12:41:22.155Z,63.00
2019-01-17T12:42:22.107Z,63.10
2019-01-17T12:43:22.091Z,63.31
2019-01-17T12:44:22.080Z,62.70
2019-01-17T12:45:22.080Z,62.07
2019-01-17T12:46:22.079Z,61.66
2019-01-17T12:47:22.052Z,61.77
2019-01-17T12:48:22.033Z,61.77
2019-01-17T12:49:22.017Z,61.25
2019-01-17T12:50:22.020Z,61.35
2019-01-17T12:51:22.022Z,61.77
2019-01-17T12:52:21.996Z,61.35